Time;durP1;ratioP1;P1;durP2;ratioP2;P2;SDS_P1;SDS_P2;PMS_P1;PMS_P2;Temp;Humidity;BMP_temperature;BMP_pressure;BME280_temperature;BME280_humidity;BME280_pressure;Samples;Min_cycle;Max_cycle;Signal;HPM_P1;HPM_P2
2023/12/10 00:01:16;;;;;;;36.63;3.88;;;;;;;;;;6066230;23;20024;-90
2023/12/10 00:03:44;;;;;;;29.98;4.75;;;;;;;;;;5088577;28;20021;-91
2023/12/10 00:06:10;;;;;;;31.77;3.53;;;;;;;;;;5079725;28;20029;-90
2023/12/10 00:08:35;;;;;;;32.35;3.92;;;;;;;;;;5062550;28;20671;-91
2023/12/10 00:11:06;;;;;;;31.47;4.00;;;;;;;;;;5037107;28;20495;-91
2023/12/10 00:13:34;;;;;;;24.08;3.75;;;;;;;;;;5036026;28;20056;-91
2023/12/10 00:16:00;;;;;;;35.67;4.27;;;;;;;;;;5053621;28;20013;-92
2023/12/10 00:18:25;;;;;;;29.05;3.70;;;;;;;;;;5053775;28;20032;-90
2023/12/10 00:20:50;;;;;;;26.10;4.23;;;;;;;;;;5053547;28;20070;-92
2023/12/10 00:23:15;;;;;;;35.57;4.43;;;;;;;;;;5034412;28;20159;-91
2023/12/10 00:25:43;;;;;;;29.50;3.77;;;;;;;;;;5053168;28;20029;-92
2023/12/10 00:28:08;;;;;;;33.97;4.57;;;;;;;;;;5035626;28;20665;-92
2023/12/10 00:30:34;;;;;;;25.20;3.20;;;;;;;;;;5052804;28;20013;-93
2023/12/10 00:32:59;;;;;;;34.45;4.43;;;;;;;;;;5035728;28;20021;-93
2023/12/10 00:35:25;;;;;;;39.37;5.13;;;;;;;;;;5052347;28;20373;-92
2023/12/10 00:37:50;;;;;;;30.50;3.80;;;;;;;;;;5052348;28;20013;-93
2023/12/10 00:40:15;;;;;;;35.40;3.83;;;;;;;;;;5051614;28;20047;-93
2023/12/10 00:42:41;;;;;;;33.37;4.33;;;;;;;;;;5048960;28;20017;-92
2023/12/10 00:45:07;;;;;;;26.17;4.35;;;;;;;;;;5054284;28;20017;-92
2023/12/10 00:47:32;;;;;;;32.97;3.45;;;;;;;;;;5052195;28;20078;-93
2023/12/10 00:49:59;;;;;;;23.00;2.97;;;;;;;;;;5053059;28;20021;-92
2023/12/10 00:52:24;;;;;;;23.73;3.07;;;;;;;;;;5051810;28;20029;-92
2023/12/10 00:54:50;;;;;;;23.43;2.93;;;;;;;;;;5053544;28;20278;-91
2023/12/10 00:57:15;;;;;;;34.30;4.23;;;;;;;;;;5034983;28;20029;-92
2023/12/10 00:59:40;;;;;;;29.37;3.30;;;;;;;;;;5034579;28;20397;-91
2023/12/10 01:02:05;;;;;;;28.90;3.60;;;;;;;;;;5032672;28;20052;-89
2023/12/10 01:04:33;;;;;;;33.15;3.92;;;;;;;;;;5053660;28;20024;-89
2023/12/10 01:06:58;;;;;;;25.53;3.23;;;;;;;;;;5054877;28;20029;-89
2023/12/10 01:09:24;;;;;;;28.30;3.30;;;;;;;;;;5053282;28;20282;-89
2023/12/10 01:11:49;;;;;;;29.80;3.47;;;;;;;;;;5053938;28;20021;-89
2023/12/10 01:14:14;;;;;;;32.07;3.83;;;;;;;;;;5037831;28;20033;-89
2023/12/10 01:16:40;;;;;;;23.07;3.50;;;;;;;;;;5035262;28;20041;-89
2023/12/10 01:19:40;;;;;;;22.15;3.00;;;;;;;;;;5145444;22;20108;-88
2023/12/10 01:22:18;;;;;;;20.58;2.92;;;;;;;;;;5051355;28;20033;-88
2023/12/10 01:24:45;;;;;;;29.23;3.75;;;;;;;;;;5056408;28;20039;-89
2023/12/10 01:27:10;;;;;;;25.80;3.07;;;;;;;;;;5042257;28;20052;-88
2023/12/10 01:32:01;;;;;;;40.77;3.57;;;;;;;;;;5056394;23;20080;-89
2023/12/10 01:34:52;;;;;;;26.13;3.73;;;;;;;;;;5040166;28;20306;-89
2023/12/10 01:37:17;;;;;;;25.07;3.00;;;;;;;;;;5018795;28;20429;-88
2023/12/10 01:39:42;;;;;;;32.60;3.30;;;;;;;;;;5029722;28;20026;-89
2023/12/10 01:42:08;;;;;;;33.77;3.23;;;;;;;;;;5031376;28;20292;-89
2023/12/10 01:44:33;;;;;;;23.77;2.67;;;;;;;;;;5042330;28;20031;-88
2023/12/10 01:47:05;;;;;;;27.83;2.83;;;;;;;;;;5050133;28;20041;-88
2023/12/10 01:49:33;;;;;;;23.58;3.17;;;;;;;;;;5036426;28;20494;-88
2023/12/10 01:52:10;;;;;;;31.08;3.47;;;;;;;;;;5052400;28;20028;-88
2023/12/10 01:54:35;;;;;;;30.57;3.53;;;;;;;;;;5041003;28;20472;-88
2023/12/10 01:57:10;;;;;;;24.50;3.20;;;;;;;;;;5033224;28;20112;-87
2023/12/10 01:59:36;;;;;;;31.40;3.50;;;;;;;;;;5021162;28;20017;-88
2023/12/10 02:02:01;;;;;;;17.33;2.50;;;;;;;;;;5045280;28;20028;-88
2023/12/10 02:04:27;;;;;;;23.97;3.07;;;;;;;;;;5042115;28;20033;-87
2023/12/10 02:06:53;;;;;;;26.48;2.97;;;;;;;;;;5042937;28;20105;-88
2023/12/10 02:09:21;;;;;;;25.57;2.50;;;;;;;;;;5031725;28;20037;-88
2023/12/10 02:11:46;;;;;;;32.27;2.93;;;;;;;;;;5043052;28;20429;-87
2023/12/10 02:14:12;;;;;;;23.63;3.40;;;;;;;;;;5041850;28;20112;-87
2023/12/10 02:16:37;;;;;;;28.77;4.03;;;;;;;;;;5037953;28;20782;-87
2023/12/10 02:19:03;;;;;;;28.87;2.47;;;;;;;;;;5051627;28;20029;-87
2023/12/10 02:21:30;;;;;;;27.60;2.60;;;;;;;;;;5031373;28;20032;-87
2023/12/10 02:24:05;;;;;;;23.23;2.60;;;;;;;;;;5030312;28;20397;-87
2023/12/10 02:26:31;;;;;;;22.40;2.53;;;;;;;;;;5029786;28;20033;-88
2023/12/10 02:28:57;;;;;;;28.33;2.60;;;;;;;;;;5045448;28;20429;-87
2023/12/10 02:31:24;;;;;;;25.55;2.90;;;;;;;;;;5043096;28;20033;-88
2023/12/10 02:33:49;;;;;;;27.55;3.05;;;;;;;;;;5022921;28;20377;-87
2023/12/10 02:36:14;;;;;;;23.47;3.20;;;;;;;;;;5036723;28;20029;-87
2023/12/10 02:38:40;;;;;;;33.50;3.30;;;;;;;;;;5049207;28;20025;-87
2023/12/10 02:41:05;;;;;;;23.37;2.60;;;;;;;;;;5048430;28;20025;-87
2023/12/10 02:43:31;;;;;;;28.60;2.60;;;;;;;;;;5030279;28;20032;-87
2023/12/10 02:45:56;;;;;;;26.27;3.00;;;;;;;;;;5049345;28;20625;-87
2023/12/10 02:48:22;;;;;;;19.83;2.50;;;;;;;;;;5039306;28;20385;-86
2023/12/10 02:50:50;;;;;;;20.10;2.90;;;;;;;;;;5010584;28;20100;-88
2023/12/10 02:53:16;;;;;;;31.77;2.97;;;;;;;;;;5036441;28;20139;-87
2023/12/10 02:55:41;;;;;;;19.45;2.40;;;;;;;;;;5037210;28;20508;-87
2023/12/10 02:58:06;;;;;;;19.23;2.57;;;;;;;;;;5045350;28;20025;-87
2023/12/10 03:00:32;;;;;;;21.47;2.40;;;;;;;;;;5027109;28;20359;-87
2023/12/10 03:02:57;;;;;;;24.17;3.20;;;;;;;;;;5032598;28;20362;-87
2023/12/10 03:05:22;;;;;;;17.47;2.33;;;;;;;;;;5044901;28;20065;-87
2023/12/10 03:07:48;;;;;;;23.50;3.13;;;;;;;;;;5037498;28;20021;-87
2023/12/10 03:10:13;;;;;;;23.37;2.87;;;;;;;;;;5047057;28;20021;-87
2023/12/10 03:12:38;;;;;;;26.17;2.83;;;;;;;;;;5046424;28;20535;-87
2023/12/10 03:15:04;;;;;;;23.30;3.07;;;;;;;;;;5014761;28;20013;-86
2023/12/10 03:17:29;;;;;;;26.13;2.47;;;;;;;;;;5015783;28;20025;-87
2023/12/10 03:19:54;;;;;;;20.75;2.55;;;;;;;;;;5047900;28;20032;-87
2023/12/10 03:22:19;;;;;;;22.00;3.57;;;;;;;;;;5047894;28;20440;-87
2023/12/10 03:24:44;;;;;;;19.30;3.23;;;;;;;;;;5037016;28;20377;-87
2023/12/10 03:27:10;;;;;;;24.03;3.17;;;;;;;;;;5048468;28;20055;-87
2023/12/10 03:29:35;;;;;;;25.93;2.60;;;;;;;;;;5067607;28;20009;-87
2023/12/10 03:32:00;;;;;;;18.40;2.80;;;;;;;;;;5043554;28;20116;-87
2023/12/10 03:34:26;;;;;;;21.80;2.90;;;;;;;;;;5033441;28;20079;-88
2023/12/10 03:36:51;;;;;;;20.25;2.22;;;;;;;;;;5033649;28;20065;-87
2023/12/10 03:39:18;;;;;;;34.20;3.60;;;;;;;;;;5041259;28;20021;-86
2023/12/10 03:41:43;;;;;;;25.63;2.80;;;;;;;;;;5059156;28;20033;-87
2023/12/10 03:44:09;;;;;;;30.60;3.87;;;;;;;;;;5019354;28;20370;-88
2023/12/10 03:46:34;;;;;;;27.07;3.43;;;;;;;;;;5043253;28;20113;-87
2023/12/10 03:48:59;;;;;;;17.70;2.40;;;;;;;;;;5033087;28;20053;-87
2023/12/10 03:51:25;;;;;;;20.63;2.55;;;;;;;;;;5045878;28;20058;-88
2023/12/10 03:53:50;;;;;;;23.60;3.00;;;;;;;;;;5051513;28;20024;-87
2023/12/10 03:56:20;;;;;;;18.83;3.35;;;;;;;;;;5054751;28;20021;-87
2023/12/10 03:58:45;;;;;;;20.93;3.33;;;;;;;;;;5042394;28;20168;-88
2023/12/10 04:01:10;;;;;;;21.17;3.03;;;;;;;;;;5035001;28;20025;-88
2023/12/10 04:03:36;;;;;;;19.30;2.53;;;;;;;;;;5022002;28;20028;-87
2023/12/10 04:06:02;;;;;;;20.03;2.63;;;;;;;;;;5049200;28;20384;-88
2023/12/10 04:08:27;;;;;;;21.85;3.00;;;;;;;;;;5037032;28;20029;-88
2023/12/10 04:10:52;;;;;;;21.33;2.83;;;;;;;;;;5032103;28;20563;-88
2023/12/10 04:13:18;;;;;;;15.43;2.10;;;;;;;;;;5028962;28;20021;-88
2023/12/10 04:15:44;;;;;;;21.27;2.97;;;;;;;;;;5051053;28;20036;-88
2023/12/10 04:18:10;;;;;;;19.75;2.50;;;;;;;;;;5035203;28;20359;-88
2023/12/10 04:20:36;;;;;;;18.60;2.95;;;;;;;;;;5021940;28;20091;-89
2023/12/10 04:23:01;;;;;;;23.60;2.90;;;;;;;;;;5029817;28;20473;-88
2023/12/10 04:25:26;;;;;;;19.77;3.03;;;;;;;;;;5031144;28;20531;-88
2023/12/10 04:27:53;;;;;;;22.53;2.87;;;;;;;;;;5038264;28;20480;-88
2023/12/10 04:30:19;;;;;;;15.77;2.20;;;;;;;;;;5031243;28;20025;-89
2023/12/10 04:32:45;;;;;;;15.88;2.28;;;;;;;;;;5044681;28;20477;-88
2023/12/10 04:35:10;;;;;;;21.03;2.70;;;;;;;;;;5052632;28;20021;-88
2023/12/10 04:37:36;;;;;;;21.73;2.88;;;;;;;;;;5048080;28;20021;-88
2023/12/10 04:40:01;;;;;;;27.87;3.60;;;;;;;;;;5036990;28;20032;-88
2023/12/10 04:42:26;;;;;;;19.37;3.30;;;;;;;;;;5038897;28;20028;-88
2023/12/10 04:44:51;;;;;;;19.10;3.17;;;;;;;;;;5038235;28;20060;-89
2023/12/10 04:47:18;;;;;;;16.57;2.83;;;;;;;;;;5042644;28;20073;-89
2023/12/10 04:49:43;;;;;;;16.35;2.47;;;;;;;;;;5048997;28;20025;-89
2023/12/10 04:52:08;;;;;;;21.53;3.50;;;;;;;;;;5027563;28;20754;-89
2023/12/10 04:54:34;;;;;;;19.73;2.53;;;;;;;;;;5031881;28;20496;-89
2023/12/10 04:56:59;;;;;;;19.43;2.63;;;;;;;;;;5040948;28;20031;-88
2023/12/10 04:59:24;;;;;;;15.67;2.83;;;;;;;;;;5057667;28;20550;-88
2023/12/10 05:01:50;;;;;;;24.43;3.10;;;;;;;;;;5046178;28;20349;-89
2023/12/10 05:04:15;;;;;;;18.13;2.50;;;;;;;;;;5034166;28;20048;-89
2023/12/10 05:06:40;;;;;;;21.07;2.60;;;;;;;;;;5027964;28;20086;-88
2023/12/10 05:09:05;;;;;;;23.00;3.43;;;;;;;;;;5103930;22;20068;-88
2023/12/10 05:11:49;;;;;;;20.80;2.97;;;;;;;;;;5031814;28;20031;-89
2023/12/10 05:14:26;;;;;;;20.05;2.53;;;;;;;;;;5043794;28;20371;-91
2023/12/10 05:16:52;;;;;;;26.92;3.20;;;;;;;;;;5022385;28;20090;-88
2023/12/10 05:19:18;;;;;;;20.43;3.23;;;;;;;;;;5005259;28;20022;-89
2023/12/10 05:21:46;;;;;;;19.17;2.70;;;;;;;;;;4995477;28;20057;-90
2023/12/10 05:24:24;;;;;;;17.20;2.70;;;;;;;;;;4996893;28;20105;-91
2023/12/10 05:26:49;;;;;;;16.80;2.47;;;;;;;;;;5032951;28;20037;-90
2023/12/10 05:29:31;;;;;;;;;;;;;;;;;;;;;
2023/12/10 05:31:57;;;;;;;21.00;2.47;;;;;;;;;;5023459;28;20033;-89
2023/12/10 05:34:22;;;;;;;23.43;2.50;;;;;;;;;;5020649;28;20109;-90
2023/12/10 05:36:47;;;;;;;19.70;2.60;;;;;;;;;;4996025;28;20057;-90
2023/12/10 05:39:14;;;;;;;18.83;2.43;;;;;;;;;;5031524;28;20272;-90
2023/12/10 05:41:40;;;;;;;24.50;2.80;;;;;;;;;;5021806;28;20478;-91
2023/12/10 05:44:06;;;;;;;18.27;2.63;;;;;;;;;;5012138;28;20753;-90
2023/12/10 05:46:31;;;;;;;16.98;2.10;;;;;;;;;;5012458;28;20025;-90
2023/12/10 05:48:56;;;;;;;23.73;3.27;;;;;;;;;;5032203;28;20045;-90
2023/12/10 05:51:21;;;;;;;20.77;2.47;;;;;;;;;;5024264;28;20068;-91
2023/12/10 05:53:47;;;;;;;20.10;2.20;;;;;;;;;;5018935;28;20040;-89
2023/12/10 05:56:12;;;;;;;22.53;2.80;;;;;;;;;;5020073;28;20029;-91
2023/12/10 05:58:37;;;;;;;19.93;2.60;;;;;;;;;;5015183;28;20022;-90
2023/12/10 06:01:03;;;;;;;24.20;2.63;;;;;;;;;;5009580;28;20021;-91
2023/12/10 06:03:29;;;;;;;18.67;2.55;;;;;;;;;;5024136;28;20100;-90
2023/12/10 06:05:57;;;;;;;17.47;2.30;;;;;;;;;;5027499;28;20037;-90
2023/12/10 06:08:22;;;;;;;23.95;2.90;;;;;;;;;;5018079;28;20080;-90
2023/12/10 06:10:48;;;;;;;20.07;3.00;;;;;;;;;;5010936;28;20045;-91
2023/12/10 06:13:13;;;;;;;15.17;2.33;;;;;;;;;;5015286;28;20029;-90
2023/12/10 06:15:39;;;;;;;22.20;2.90;;;;;;;;;;5017231;28;20116;-89
2023/12/10 06:18:05;;;;;;;21.92;3.08;;;;;;;;;;5022485;28;20018;-91
2023/12/10 06:20:30;;;;;;;24.23;2.77;;;;;;;;;;5011122;28;20391;-91
2023/12/10 06:22:56;;;;;;;16.67;2.30;;;;;;;;;;5021371;28;20424;-90
2023/12/10 06:25:21;;;;;;;27.07;2.50;;;;;;;;;;5014188;28;20025;-92
2023/12/10 06:27:46;;;;;;;20.53;3.03;;;;;;;;;;5013532;28;20276;-93
2023/12/10 06:30:11;;;;;;;18.90;2.43;;;;;;;;;;5025553;28;20045;-92
2023/12/10 06:32:46;;;;;;;16.30;2.27;;;;;;;;;;5040160;28;20029;-93
2023/12/10 06:35:11;;;;;;;21.83;2.80;;;;;;;;;;5038751;28;20010;-93
2023/12/10 06:37:37;;;;;;;18.20;2.23;;;;;;;;;;5014093;28;20025;-87
2023/12/10 06:40:03;;;;;;;25.17;2.90;;;;;;;;;;5015245;28;20025;-91
2023/12/10 06:42:28;;;;;;;16.27;2.50;;;;;;;;;;5015735;28;20444;-90
2023/12/10 06:44:53;;;;;;;21.93;2.63;;;;;;;;;;5017983;28;20292;-89
2023/12/10 06:47:21;;;;;;;23.40;3.33;;;;;;;;;;5016037;28;20038;-91
2023/12/10 06:49:47;;;;;;;15.00;2.17;;;;;;;;;;5017863;28;20113;-92
2023/12/10 06:52:12;;;;;;;16.87;3.13;;;;;;;;;;5038003;28;20041;-90
2023/12/10 06:54:38;;;;;;;21.83;2.43;;;;;;;;;;5042085;28;20021;-91
2023/12/10 06:57:04;;;;;;;16.27;2.73;;;;;;;;;;5053600;28;20030;-90
2023/12/10 06:59:30;;;;;;;16.83;2.05;;;;;;;;;;5045198;28;20368;-91
2023/12/10 07:01:55;;;;;;;23.17;2.80;;;;;;;;;;5029088;28;20057;-91
2023/12/10 07:04:20;;;;;;;18.00;2.63;;;;;;;;;;5028397;28;20041;-92
2023/12/10 07:06:45;;;;;;;25.57;3.40;;;;;;;;;;5019357;28;20069;-91
2023/12/10 07:09:12;;;;;;;21.37;2.97;;;;;;;;;;5029526;28;20022;-92
2023/12/10 07:11:37;;;;;;;17.13;2.50;;;;;;;;;;5034976;28;20269;-91
2023/12/10 07:14:02;;;;;;;17.38;2.50;;;;;;;;;;5018795;28;20028;-92
2023/12/10 07:16:28;;;;;;;19.87;2.60;;;;;;;;;;5035332;28;20018;-91
2023/12/10 07:18:53;;;;;;;21.03;2.70;;;;;;;;;;5026364;28;20129;-91
2023/12/10 07:21:18;;;;;;;18.50;2.13;;;;;;;;;;5017890;28;20038;-93
2023/12/10 07:23:44;;;;;;;16.13;2.43;;;;;;;;;;5017835;28;20025;-94
2023/12/10 07:26:09;;;;;;;19.47;2.73;;;;;;;;;;5019936;28;20053;-95
2023/12/10 07:28:35;;;;;;;22.55;3.00;;;;;;;;;;5239862;22;20048;-92
2023/12/10 07:33:54;;;;;;;21.33;2.65;;;;;;;;;;5426691;22;20107;-93
2023/12/10 07:36:50;;;;;;;21.75;2.65;;;;;;;;;;5029747;28;20404;-92
2023/12/10 07:39:43;;;;;;;20.83;2.65;;;;;;;;;;5012465;28;20029;-91
2023/12/10 07:42:08;;;;;;;21.27;3.37;;;;;;;;;;5013490;28;20034;-93
2023/12/10 08:05:08;;;;;;;14.25;2.22;;;;;;;;;;5056947;28;20061;-95
2023/12/10 08:10:38;;;;;;;23.45;3.28;;;;;;;;;;5057841;28;20031;-96
2023/12/10 08:13:03;;;;;;;29.10;3.03;;;;;;;;;;5076875;28;20059;-96
2023/12/10 08:15:31;;;;;;;12.20;2.20;;;;;;;;;;5062469;28;20096;-96
2023/12/10 08:18:16;;;;;;;23.05;2.60;;;;;;;;;;5068470;28;20025;-96
2023/12/10 08:20:50;;;;;;;17.50;2.90;;;;;;;;;;5057608;28;20029;-96
2023/12/10 08:23:21;;;;;;;23.03;2.40;;;;;;;;;;5041491;28;20407;-96
2023/12/10 08:26:06;;;;;;;;;;;;;;;;;;;;;
2023/12/10 08:28:31;;;;;;;22.17;2.78;;;;;;;;;;5045590;28;20077;-96
2023/12/10 08:31:29;;;;;;;24.70;2.80;;;;;;;;;;5044998;28;20060;-95
2023/12/10 08:33:54;;;;;;;24.05;2.80;;;;;;;;;;5054737;28;20078;-95
2023/12/10 08:36:32;;;;;;;22.83;3.00;;;;;;;;;;5070363;28;20021;-95
2023/12/10 08:42:00;;;;;;;23.25;3.20;;;;;;;;;;5041949;28;20028;-95
2023/12/10 08:44:25;;;;;;;25.73;2.90;;;;;;;;;;5043403;28;20018;-94
2023/12/10 08:47:22;;;;;;;17.00;2.60;;;;;;;;;;5054529;23;20021;-94
2023/12/10 08:49:52;;;;;;;19.58;2.90;;;;;;;;;;5025336;28;20038;-96
2023/12/10 08:58:29;;;;;;;20.70;2.83;;;;;;;;;;5062221;22;20110;-95
2023/12/10 09:01:05;;;;;;;19.58;2.58;;;;;;;;;;5063781;28;20055;-94
2023/12/10 09:03:30;;;;;;;21.88;2.67;;;;;;;;;;5054742;28;20056;-95
2023/12/10 09:06:18;;;;;;;14.70;2.20;;;;;;;;;;5058397;28;20041;-95
2023/12/10 09:08:43;;;;;;;16.58;2.38;;;;;;;;;;5056715;28;20029;-95
2023/12/10 09:11:14;;;;;;;25.10;3.87;;;;;;;;;;5051722;28;20393;-94
2023/12/10 09:26:56;;;;;;;23.60;2.90;;;;;;;;;;5155057;22;20063;-91
2023/12/10 09:29:52;;;;;;;23.17;2.70;;;;;;;;;;5040967;28;20025;-93
2023/12/10 09:32:20;;;;;;;20.90;3.17;;;;;;;;;;5061759;28;20025;-93
2023/12/10 09:34:53;;;;;;;22.43;2.10;;;;;;;;;;5048677;28;20403;-93
2023/12/10 09:37:18;;;;;;;14.90;2.50;;;;;;;;;;5047447;28;20025;-92
2023/12/10 09:39:44;;;;;;;21.47;2.77;;;;;;;;;;5063937;28;20052;-93
2023/12/10 09:42:10;;;;;;;24.67;2.80;;;;;;;;;;5065168;28;20472;-93
2023/12/10 09:44:35;;;;;;;27.07;2.80;;;;;;;;;;5043500;28;20033;-92
2023/12/10 09:47:00;;;;;;;24.00;2.50;;;;;;;;;;5064082;28;20043;-92
2023/12/10 09:49:27;;;;;;;19.23;3.15;;;;;;;;;;5069311;28;20051;-92
2023/12/10 09:51:53;;;;;;;22.73;3.47;;;;;;;;;;5071523;28;20089;-94
2023/12/10 09:54:20;;;;;;;22.83;3.58;;;;;;;;;;5038394;28;20039;-91
2023/12/10 09:56:47;;;;;;;20.90;3.47;;;;;;;;;;5046949;28;20091;-93
2023/12/10 09:59:12;;;;;;;20.38;2.90;;;;;;;;;;5047647;28;20057;-94
2023/12/10 10:01:37;;;;;;;18.80;2.77;;;;;;;;;;5068424;28;20020;-93
2023/12/10 10:04:08;;;;;;;22.73;3.73;;;;;;;;;;5066703;28;20484;-93
2023/12/10 10:06:34;;;;;;;21.05;2.90;;;;;;;;;;5052572;28;20037;-92
2023/12/10 10:08:59;;;;;;;18.37;2.90;;;;;;;;;;5062608;28;20009;-93
2023/12/10 10:11:24;;;;;;;20.50;3.53;;;;;;;;;;5070533;28;20051;-91
2023/12/10 10:13:53;;;;;;;28.30;3.50;;;;;;;;;;5069863;28;20021;-91
2023/12/10 10:16:18;;;;;;;17.50;2.93;;;;;;;;;;5072391;28;20359;-92
2023/12/10 10:18:46;;;;;;;26.42;3.50;;;;;;;;;;5072460;28;20040;-91
2023/12/10 10:21:11;;;;;;;21.07;3.40;;;;;;;;;;5072556;28;20009;-92
2023/12/10 10:23:37;;;;;;;19.93;2.57;;;;;;;;;;5073147;28;20009;-91
2023/12/10 10:26:02;;;;;;;19.33;2.60;;;;;;;;;;5076793;28;20322;-90
2023/12/10 11:27:19;;;;;;;14.73;2.75;;;;;;;;;;5326698;22;20154;-93
2023/12/10 11:29:47;;;;;;;18.70;2.83;;;;;;;;;;5053069;28;20033;-94
2023/12/10 11:32:14;;;;;;;18.00;2.70;;;;;;;;;;5053585;28;20284;-92
2023/12/10 11:34:49;;;;;;;23.67;2.75;;;;;;;;;;5066584;28;20013;-91
2023/12/10 11:37:15;;;;;;;15.00;2.10;;;;;;;;;;5059291;28;20037;-93
2023/12/10 11:39:40;;;;;;;18.33;2.80;;;;;;;;;;5054060;28;20085;-93
2023/12/10 11:42:06;;;;;;;17.90;3.13;;;;;;;;;;5047060;28;20026;-93
2023/12/10 11:47:37;;;;;;;22.40;2.97;;;;;;;;;;5047196;28;20049;-92
2023/12/10 11:55:13;;;;;;;18.65;2.97;;;;;;;;;;5113330;22;20148;-92
2023/12/10 12:03:26;;;;;;;17.80;3.10;;;;;;;;;;5496578;22;20057;-93
2023/12/10 12:14:30;;;;;;;23.63;3.28;;;;;;;;;;5029315;28;20389;-91
2023/12/10 12:17:12;;;;;;;21.10;3.53;;;;;;;;;;5017123;28;20045;-92
2023/12/10 12:23:01;;;;;;;25.55;3.35;;;;;;;;;;4996723;28;20033;-91
2023/12/10 12:33:34;;;;;;;28.77;3.90;;;;;;;;;;5072387;22;20045;-92
2023/12/10 12:35:59;;;;;;;27.10;3.77;;;;;;;;;;5006445;28;20284;-94
2023/12/10 12:42:00;;;;;;;34.43;4.60;;;;;;;;;;4997680;28;20361;-94
2023/12/10 12:44:44;;;;;;;45.25;4.95;;;;;;;;;;4999424;28;20030;-95
2023/12/10 12:47:34;;;;;;;41.03;4.47;;;;;;;;;;5018411;28;20034;-93
2023/12/10 12:50:26;;;;;;;32.83;4.10;;;;;;;;;;5007350;28;20084;-94
2023/12/10 13:03:27;;;;;;;43.35;4.50;;;;;;;;;;5593872;23;20055;-94
2023/12/10 13:09:24;;;;;;;35.37;4.53;;;;;;;;;;5031825;23;20060;-96
2023/12/10 13:21:00;;;;;;;32.92;4.20;;;;;;;;;;5015400;22;20049;-93
2023/12/10 13:23:32;;;;;;;29.85;3.92;;;;;;;;;;5016587;28;20040;-93
2023/12/10 13:26:08;;;;;;;35.87;4.90;;;;;;;;;;5063141;22;20038;-94
2023/12/10 13:28:46;;;;;;;31.13;4.70;;;;;;;;;;4998399;28;20534;-94
2023/12/10 13:31:12;;;;;;;28.08;4.47;;;;;;;;;;5018375;23;20541;-95
2023/12/10 13:33:37;;;;;;;25.53;4.13;;;;;;;;;;5060439;28;20099;-94
2023/12/10 13:36:06;;;;;;;24.23;4.10;;;;;;;;;;5053744;28;20024;-94
2023/12/10 13:38:50;;;;;;;32.73;4.40;;;;;;;;;;5032046;28;20128;-93
2023/12/10 13:41:18;;;;;;;25.90;3.78;;;;;;;;;;5053769;28;20284;-93
2023/12/10 13:43:49;;;;;;;37.20;5.05;;;;;;;;;;5050295;28;20144;-94
2023/12/10 13:49:34;;;;;;;;;;;;;;;;;;;;;
2023/12/10 13:52:00;;;;;;;35.73;4.30;;;;;;;;;;5055079;28;20057;-94
2023/12/10 13:57:37;;;;;;;39.90;4.80;;;;;;;;;;5050737;23;20136;-92
2023/12/10 14:00:03;;;;;;;27.42;3.85;;;;;;;;;;5042191;28;20012;-92
2023/12/10 14:08:39;;;;;;;29.83;4.10;;;;;;;;;;5044909;28;20032;-94
2023/12/10 14:11:23;;;;;;;29.75;4.03;;;;;;;;;;5047444;28;20025;-93
2023/12/10 14:14:26;;;;;;;33.83;4.50;;;;;;;;;;5048332;28;20089;-92
2023/12/10 15:08:28;;;;;;;28.70;4.27;;;;;;;;;;5420099;22;20076;-92
2023/12/10 15:11:06;;;;;;;31.45;4.35;;;;;;;;;;5042975;28;20063;-91
2023/12/10 15:17:06;;;;;;;20.33;2.95;;;;;;;;;;5341036;22;20141;-93
2023/12/10 15:19:42;;;;;;;27.35;3.80;;;;;;;;;;5021431;28;20072;-93
2023/12/10 15:25:06;;;;;;;21.23;4.00;;;;;;;;;;5042703;22;20041;-92
2023/12/10 15:42:47;;;;;;;23.52;3.05;;;;;;;;;;5024268;28;20427;-91
2023/12/10 15:45:21;;;;;;;19.67;2.80;;;;;;;;;;5017982;28;20481;-93
2023/12/10 15:47:47;;;;;;;25.90;3.50;;;;;;;;;;5017931;28;20022;-92
2023/12/10 15:50:12;;;;;;;17.87;2.80;;;;;;;;;;5034794;28;19998;-94
2023/12/10 15:52:46;;;;;;;21.63;3.33;;;;;;;;;;5025722;28;20426;-94
2023/12/10 15:58:44;;;;;;;;;;;;;;;;;;;;;
2023/12/10 16:07:17;;;;;;;22.07;3.77;;;;;;;;;;5103883;22;20418;-94
2023/12/10 16:09:42;;;;;;;17.40;3.13;;;;;;;;;;5057768;28;20029;-95
2023/12/10 16:12:08;;;;;;;24.80;3.60;;;;;;;;;;5060971;28;20029;-96
2023/12/10 16:14:40;;;;;;;22.50;3.67;;;;;;;;;;5059010;28;20017;-95
2023/12/10 16:17:09;;;;;;;22.63;2.72;;;;;;;;;;5054885;28;20028;-95
2023/12/10 16:19:36;;;;;;;20.23;3.08;;;;;;;;;;5054846;28;20496;-95
2023/12/10 16:22:08;;;;;;;24.83;4.00;;;;;;;;;;5038706;28;20488;-96
2023/12/10 16:24:48;;;;;;;21.83;2.80;;;;;;;;;;5059332;28;20021;-96
2023/12/10 16:27:18;;;;;;;27.30;3.30;;;;;;;;;;5060781;28;20025;-95
2023/12/10 16:29:44;;;;;;;23.98;3.35;;;;;;;;;;5061373;28;20457;-93
2023/12/10 16:32:46;;;;;;;25.33;3.85;;;;;;;;;;5062953;28;20020;-94
2023/12/10 16:35:11;;;;;;;20.67;2.70;;;;;;;;;;5057705;28;20040;-93
2023/12/10 16:37:36;;;;;;;20.73;2.53;;;;;;;;;;5057865;28;20279;-93
2023/12/10 16:40:04;;;;;;;20.93;2.50;;;;;;;;;;5056760;28;20049;-94
2023/12/10 16:42:35;;;;;;;21.90;3.28;;;;;;;;;;5058531;28;20370;-93
2023/12/10 16:45:09;;;;;;;21.60;2.72;;;;;;;;;;5059093;28;20096;-96
2023/12/10 16:47:37;;;;;;;19.10;2.90;;;;;;;;;;5035421;28;20104;-92
2023/12/10 16:50:05;;;;;;;20.42;3.22;;;;;;;;;;5043309;28;20017;-89
2023/12/10 16:52:48;;;;;;;20.80;2.75;;;;;;;;;;5056408;28;20108;-92
2023/12/10 16:57:55;;;;;;;20.27;2.70;;;;;;;;;;5241541;22;20053;-88
2023/12/10 17:10:44;;;;;;;22.10;3.08;;;;;;;;;;5094813;23;20068;-89
2023/12/10 17:13:19;;;;;;;14.73;2.47;;;;;;;;;;5050592;28;20025;-91
2023/12/10 17:15:46;;;;;;;22.88;3.88;;;;;;;;;;5033158;28;20598;-89
2023/12/10 17:18:14;;;;;;;32.08;5.38;;;;;;;;;;5030333;28;20029;-90
2023/12/10 17:20:40;;;;;;;19.87;4.80;;;;;;;;;;5028377;28;20064;-90
2023/12/10 17:23:05;;;;;;;23.38;3.38;;;;;;;;;;5030809;28;20456;-89
2023/12/10 17:25:31;;;;;;;17.20;3.47;;;;;;;;;;5028186;28;20033;-88
2023/12/10 17:27:56;;;;;;;24.77;3.00;;;;;;;;;;5024744;28;20036;-88
2023/12/10 17:30:21;;;;;;;21.93;3.27;;;;;;;;;;5021475;28;20460;-88
2023/12/10 17:32:49;;;;;;;26.63;2.73;;;;;;;;;;5028436;28;20033;-88
2023/12/10 17:35:15;;;;;;;25.58;2.85;;;;;;;;;;5028649;28;20112;-89
2023/12/10 17:37:40;;;;;;;21.63;3.70;;;;;;;;;;5027381;28;20117;-90
2023/12/10 17:40:06;;;;;;;19.43;2.80;;;;;;;;;;5286828;22;20036;-88
2023/12/10 17:42:31;;;;;;;23.27;2.70;;;;;;;;;;5050440;22;20042;-88
2023/12/10 17:45:05;;;;;;;12.13;2.00;;;;;;;;;;5008527;28;20454;-89
2023/12/10 17:47:38;;;;;;;19.57;2.57;;;;;;;;;;5001812;28;20037;-87
2023/12/10 17:50:03;;;;;;;19.88;3.33;;;;;;;;;;4997589;28;20026;-92
2023/12/10 17:52:35;;;;;;;15.68;2.80;;;;;;;;;;4997350;28;20041;-91
2023/12/10 17:55:03;;;;;;;17.93;2.30;;;;;;;;;;4974494;28;20386;-88
2023/12/10 17:57:28;;;;;;;19.70;2.75;;;;;;;;;;4992205;28;20026;-87
2023/12/10 18:00:00;;;;;;;18.50;2.40;;;;;;;;;;4990320;28;20072;-92
2023/12/10 18:02:31;;;;;;;17.75;2.83;;;;;;;;;;4988857;28;20104;-93
2023/12/10 18:04:56;;;;;;;13.85;1.90;;;;;;;;;;4988762;28;20018;-89
2023/12/10 18:07:25;;;;;;;15.07;2.27;;;;;;;;;;4988529;28;20022;-89
2023/12/10 18:09:50;;;;;;;14.43;1.90;;;;;;;;;;4990899;28;20022;-88
2023/12/10 18:12:15;;;;;;;16.17;2.23;;;;;;;;;;4989100;28;20024;-90
2023/12/10 18:14:41;;;;;;;13.67;2.17;;;;;;;;;;4987780;28;20046;-90
2023/12/10 18:17:06;;;;;;;15.52;2.55;;;;;;;;;;4989479;28;20088;-90
2023/12/10 18:19:31;;;;;;;15.97;3.13;;;;;;;;;;4991727;28;20026;-89
2023/12/10 18:21:57;;;;;;;9.30;1.97;;;;;;;;;;4984068;28;20113;-90
2023/12/10 18:24:22;;;;;;;12.93;2.53;;;;;;;;;;4990391;28;20117;-89
2023/12/10 18:26:47;;;;;;;13.47;2.30;;;;;;;;;;4993488;28;20113;-92
2023/12/10 18:29:13;;;;;;;11.07;2.10;;;;;;;;;;4993694;28;20030;-91
2023/12/10 18:31:38;;;;;;;13.10;2.35;;;;;;;;;;4993805;28;20721;-88
2023/12/10 18:34:03;;;;;;;9.17;2.20;;;;;;;;;;4994319;28;20129;-90
2023/12/10 18:36:31;;;;;;;15.30;2.77;;;;;;;;;;4994419;28;20240;-91
2023/12/10 18:38:56;;;;;;;10.27;1.90;;;;;;;;;;4995458;28;20068;-90
2023/12/10 18:41:22;;;;;;;7.30;1.80;;;;;;;;;;4994618;28;20026;-90
2023/12/10 18:43:47;;;;;;;10.10;2.37;;;;;;;;;;4994366;28;20018;-90
2023/12/10 18:46:13;;;;;;;6.97;1.90;;;;;;;;;;5000375;28;20034;-91
2023/12/10 18:48:38;;;;;;;13.73;2.10;;;;;;;;;;5009270;28;20356;-94
2023/12/10 18:51:10;;;;;;;8.77;1.60;;;;;;;;;;5007948;28;20044;-90
2023/12/10 18:53:44;;;;;;;5.30;1.48;;;;;;;;;;5014690;28;20029;-92
2023/12/10 18:56:18;;;;;;;6.65;1.80;;;;;;;;;;5015257;28;20010;-93
2023/12/10 18:58:56;;;;;;;7.22;1.50;;;;;;;;;;5014180;28;20018;-92
2023/12/10 19:01:26;;;;;;;7.40;2.10;;;;;;;;;;5002987;28;20035;-90
2023/12/10 19:03:51;;;;;;;7.15;1.70;;;;;;;;;;5008653;28;20030;-92
2023/12/10 19:06:16;;;;;;;6.03;1.67;;;;;;;;;;5007118;28;20510;-90
2023/12/10 19:08:42;;;;;;;7.13;1.83;;;;;;;;;;5011079;28;20102;-92
2023/12/10 19:14:28;;;;;;;6.85;1.70;;;;;;;;;;5015162;28;20073;-92
2023/12/10 19:16:54;;;;;;;9.43;2.05;;;;;;;;;;5012312;28;20085;-92
2023/12/10 19:19:25;;;;;;;15.33;3.27;;;;;;;;;;5012780;28;20074;-90
2023/12/10 19:21:50;;;;;;;5.53;2.00;;;;;;;;;;4989094;28;20124;-91